sensor_id;sensor_type;location;lat;lon;timestamp;P1;durP1;ratioP1;P2;durP2;ratioP2
35562;SDS011;21665;40.108;18.302;2023-12-20T00:02:21;111.20;;;47.97;;
35562;SDS011;21665;40.108;18.302;2023-12-20T00:04:48;121.90;;;47.75;;
35562;SDS011;21665;40.108;18.302;2023-12-20T00:07:14;107.20;;;45.55;;
35562;SDS011;21665;40.108;18.302;2023-12-20T00:09:43;112.57;;;47.15;;
35562;SDS011;21665;40.108;18.302;2023-12-20T00:12:10;106.32;;;44.15;;
35562;SDS011;21665;40.108;18.302;2023-12-20T00:14:36;115.95;;;44.92;;
35562;SDS011;21665;40.108;18.302;2023-12-20T00:17:03;102.88;;;44.97;;
35562;SDS011;21665;40.108;18.302;2023-12-20T00:19:30;100.68;;;40.53;;
35562;SDS011;21665;40.108;18.302;2023-12-20T00:21:56;111.75;;;44.35;;
35562;SDS011;21665;40.108;18.302;2023-12-20T00:24:22;95.75;;;42.63;;
35562;SDS011;21665;40.108;18.302;2023-12-20T00:26:49;102.00;;;42.13;;
35562;SDS011;21665;40.108;18.302;2023-12-20T00:29:15;93.18;;;39.85;;
35562;SDS011;21665;40.108;18.302;2023-12-20T00:31:41;77.35;;;35.80;;
35562;SDS011;21665;40.108;18.302;2023-12-20T00:34:08;77.50;;;35.20;;
35562;SDS011;21665;40.108;18.302;2023-12-20T00:36:34;87.70;;;35.15;;
35562;SDS011;21665;40.108;18.302;2023-12-20T00:39:00;70.10;;;33.22;;
35562;SDS011;21665;40.108;18.302;2023-12-20T00:41:30;69.10;;;32.78;;
35562;SDS011;21665;40.108;18.302;2023-12-20T00:43:56;77.78;;;31.25;;
35562;SDS011;21665;40.108;18.302;2023-12-20T00:46:24;75.40;;;30.58;;
35562;SDS011;21665;40.108;18.302;2023-12-20T00:48:50;80.60;;;31.38;;
35562;SDS011;21665;40.108;18.302;2023-12-20T00:51:17;61.63;;;28.08;;
35562;SDS011;21665;40.108;18.302;2023-12-20T00:53:44;84.75;;;32.08;;
35562;SDS011;21665;40.108;18.302;2023-12-20T00:56:14;78.18;;;32.95;;
35562;SDS011;21665;40.108;18.302;2023-12-20T00:58:45;71.00;;;32.20;;
35562;SDS011;21665;40.108;18.302;2023-12-20T01:01:11;80.88;;;34.50;;
35562;SDS011;21665;40.108;18.302;2023-12-20T01:03:38;78.85;;;34.63;;
35562;SDS011;21665;40.108;18.302;2023-12-20T01:06:05;85.15;;;35.42;;
35562;SDS011;21665;40.108;18.302;2023-12-20T01:08:31;96.75;;;37.88;;
35562;SDS011;21665;40.108;18.302;2023-12-20T01:11:00;80.85;;;36.83;;
35562;SDS011;21665;40.108;18.302;2023-12-20T01:13:29;87.07;;;38.13;;
35562;SDS011;21665;40.108;18.302;2023-12-20T01:15:55;83.53;;;36.47;;
35562;SDS011;21665;40.108;18.302;2023-12-20T01:18:22;98.20;;;40.17;;
35562;SDS011;21665;40.108;18.302;2023-12-20T01:20:51;93.28;;;38.28;;
35562;SDS011;21665;40.108;18.302;2023-12-20T01:23:18;92.85;;;39.13;;
35562;SDS011;21665;40.108;18.302;2023-12-20T01:25:44;82.63;;;35.30;;
35562;SDS011;21665;40.108;18.302;2023-12-20T01:28:11;84.63;;;36.13;;
35562;SDS011;21665;40.108;18.302;2023-12-20T01:30:37;73.35;;;32.00;;
35562;SDS011;21665;40.108;18.302;2023-12-20T01:33:03;77.32;;;32.63;;
35562;SDS011;21665;40.108;18.302;2023-12-20T01:35:30;77.70;;;34.47;;
35562;SDS011;21665;40.108;18.302;2023-12-20T01:37:56;79.07;;;33.80;;
35562;SDS011;21665;40.108;18.302;2023-12-20T01:40:23;77.05;;;35.15;;
35562;SDS011;21665;40.108;18.302;2023-12-20T01:43:00;63.75;;;31.90;;
35562;SDS011;21665;40.108;18.302;2023-12-20T01:45:27;66.18;;;31.85;;
35562;SDS011;21665;40.108;18.302;2023-12-20T01:47:54;67.50;;;31.67;;
35562;SDS011;21665;40.108;18.302;2023-12-20T01:50:23;66.43;;;31.05;;
35562;SDS011;21665;40.108;18.302;2023-12-20T01:52:52;56.45;;;28.38;;
35562;SDS011;21665;40.108;18.302;2023-12-20T01:55:24;55.90;;;28.17;;
35562;SDS011;21665;40.108;18.302;2023-12-20T01:57:57;66.72;;;28.05;;
35562;SDS011;21665;40.108;18.302;2023-12-20T02:00:24;85.43;;;31.80;;
35562;SDS011;21665;40.108;18.302;2023-12-20T02:02:54;73.25;;;31.77;;
35562;SDS011;21665;40.108;18.302;2023-12-20T02:05:21;66.55;;;30.85;;
35562;SDS011;21665;40.108;18.302;2023-12-20T02:07:47;100.32;;;34.08;;
35562;SDS011;21665;40.108;18.302;2023-12-20T02:10:14;79.43;;;33.78;;
35562;SDS011;21665;40.108;18.302;2023-12-20T02:12:41;77.72;;;32.83;;
35562;SDS011;21665;40.108;18.302;2023-12-20T02:15:08;96.38;;;35.83;;
35562;SDS011;21665;40.108;18.302;2023-12-20T02:17:35;99.00;;;32.92;;
35562;SDS011;21665;40.108;18.302;2023-12-20T02:20:04;153.18;;;38.13;;
35562;SDS011;21665;40.108;18.302;2023-12-20T02:22:31;153.20;;;36.10;;
35562;SDS011;21665;40.108;18.302;2023-12-20T02:24:58;168.52;;;40.97;;
35562;SDS011;21665;40.108;18.302;2023-12-20T02:27:27;189.75;;;40.97;;
35562;SDS011;21665;40.108;18.302;2023-12-20T02:30:01;174.77;;;43.10;;
35562;SDS011;21665;40.108;18.302;2023-12-20T02:32:27;116.50;;;37.95;;
35562;SDS011;21665;40.108;18.302;2023-12-20T02:34:54;85.65;;;37.65;;
35562;SDS011;21665;40.108;18.302;2023-12-20T02:37:21;120.00;;;38.95;;
35562;SDS011;21665;40.108;18.302;2023-12-20T02:39:47;130.23;;;38.88;;
35562;SDS011;21665;40.108;18.302;2023-12-20T02:42:13;99.22;;;38.53;;
35562;SDS011;21665;40.108;18.302;2023-12-20T02:44:39;90.97;;;36.38;;
35562;SDS011;21665;40.108;18.302;2023-12-20T02:47:06;99.47;;;36.75;;
35562;SDS011;21665;40.108;18.302;2023-12-20T02:49:32;95.70;;;38.60;;
35562;SDS011;21665;40.108;18.302;2023-12-20T02:51:59;90.72;;;36.67;;
35562;SDS011;21665;40.108;18.302;2023-12-20T02:54:25;84.65;;;35.15;;
35562;SDS011;21665;40.108;18.302;2023-12-20T02:56:51;78.93;;;34.85;;
35562;SDS011;21665;40.108;18.302;2023-12-20T02:59:18;86.30;;;37.05;;
35562;SDS011;21665;40.108;18.302;2023-12-20T03:01:45;78.72;;;34.78;;
35562;SDS011;21665;40.108;18.302;2023-12-20T03:04:14;82.28;;;33.35;;
35562;SDS011;21665;40.108;18.302;2023-12-20T03:06:41;63.65;;;29.33;;
35562;SDS011;21665;40.108;18.302;2023-12-20T03:09:10;46.83;;;23.13;;
35562;SDS011;21665;40.108;18.302;2023-12-20T03:11:40;55.70;;;24.58;;
35562;SDS011;21665;40.108;18.302;2023-12-20T03:14:06;59.45;;;25.65;;
35562;SDS011;21665;40.108;18.302;2023-12-20T03:16:33;58.85;;;25.27;;
35562;SDS011;21665;40.108;18.302;2023-12-20T03:19:02;59.50;;;25.63;;
35562;SDS011;21665;40.108;18.302;2023-12-20T03:21:35;52.95;;;25.13;;
35562;SDS011;21665;40.108;18.302;2023-12-20T03:24:01;48.30;;;25.80;;
35562;SDS011;21665;40.108;18.302;2023-12-20T03:26:28;49.17;;;23.77;;
35562;SDS011;21665;40.108;18.302;2023-12-20T03:28:54;48.25;;;25.17;;
35562;SDS011;21665;40.108;18.302;2023-12-20T03:31:20;52.88;;;24.98;;
35562;SDS011;21665;40.108;18.302;2023-12-20T03:33:47;49.90;;;23.83;;
35562;SDS011;21665;40.108;18.302;2023-12-20T03:36:14;49.63;;;24.25;;
35562;SDS011;21665;40.108;18.302;2023-12-20T03:38:40;54.28;;;24.27;;
35562;SDS011;21665;40.108;18.302;2023-12-20T03:41:06;48.92;;;23.70;;
35562;SDS011;21665;40.108;18.302;2023-12-20T03:43:33;48.35;;;22.70;;
35562;SDS011;21665;40.108;18.302;2023-12-20T03:46:02;47.25;;;22.40;;
35562;SDS011;21665;40.108;18.302;2023-12-20T03:48:30;47.17;;;22.55;;
35562;SDS011;21665;40.108;18.302;2023-12-20T03:50:56;47.13;;;23.02;;
35562;SDS011;21665;40.108;18.302;2023-12-20T03:53:23;43.40;;;21.35;;
35562;SDS011;21665;40.108;18.302;2023-12-20T03:55:52;43.28;;;21.92;;
35562;SDS011;21665;40.108;18.302;2023-12-20T03:58:21;43.33;;;22.02;;
35562;SDS011;21665;40.108;18.302;2023-12-20T04:00:48;44.75;;;23.02;;
35562;SDS011;21665;40.108;18.302;2023-12-20T04:03:14;45.08;;;22.90;;
35562;SDS011;21665;40.108;18.302;2023-12-20T04:05:41;42.70;;;20.52;;
35562;SDS011;21665;40.108;18.302;2023-12-20T04:08:07;49.28;;;23.83;;
35562;SDS011;21665;40.108;18.302;2023-12-20T04:10:35;44.65;;;22.10;;
35562;SDS011;21665;40.108;18.302;2023-12-20T04:13:03;47.10;;;23.95;;
35562;SDS011;21665;40.108;18.302;2023-12-20T04:15:30;49.10;;;23.02;;
35562;SDS011;21665;40.108;18.302;2023-12-20T04:17:56;52.45;;;24.75;;
35562;SDS011;21665;40.108;18.302;2023-12-20T04:20:22;48.33;;;23.50;;
35562;SDS011;21665;40.108;18.302;2023-12-20T04:22:49;56.90;;;24.83;;
35562;SDS011;21665;40.108;18.302;2023-12-20T04:25:15;57.72;;;24.50;;
35562;SDS011;21665;40.108;18.302;2023-12-20T04:27:44;47.50;;;23.38;;
35562;SDS011;21665;40.108;18.302;2023-12-20T04:30:11;61.95;;;24.73;;
35562;SDS011;21665;40.108;18.302;2023-12-20T04:32:37;58.97;;;25.17;;
35562;SDS011;21665;40.108;18.302;2023-12-20T04:35:04;53.17;;;24.52;;
35562;SDS011;21665;40.108;18.302;2023-12-20T04:37:31;57.95;;;25.25;;
35562;SDS011;21665;40.108;18.302;2023-12-20T04:40:00;62.30;;;25.92;;
35562;SDS011;21665;40.108;18.302;2023-12-20T04:42:27;56.72;;;24.83;;
35562;SDS011;21665;40.108;18.302;2023-12-20T04:44:53;51.33;;;23.92;;
35562;SDS011;21665;40.108;18.302;2023-12-20T04:47:19;60.15;;;24.70;;
35562;SDS011;21665;40.108;18.302;2023-12-20T04:49:45;54.83;;;24.25;;
35562;SDS011;21665;40.108;18.302;2023-12-20T04:52:13;57.20;;;23.48;;
35562;SDS011;21665;40.108;18.302;2023-12-20T04:54:40;55.78;;;24.38;;
35562;SDS011;21665;40.108;18.302;2023-12-20T04:57:06;53.17;;;24.30;;
35562;SDS011;21665;40.108;18.302;2023-12-20T04:59:32;59.65;;;25.95;;
35562;SDS011;21665;40.108;18.302;2023-12-20T05:01:59;79.10;;;26.48;;
35562;SDS011;21665;40.108;18.302;2023-12-20T05:04:26;66.45;;;27.77;;
35562;SDS011;21665;40.108;18.302;2023-12-20T05:06:52;86.60;;;28.85;;
35562;SDS011;21665;40.108;18.302;2023-12-20T05:09:21;118.82;;;30.70;;
35562;SDS011;21665;40.108;18.302;2023-12-20T05:11:48;113.13;;;30.55;;
35562;SDS011;21665;40.108;18.302;2023-12-20T05:14:14;109.88;;;30.45;;
35562;SDS011;21665;40.108;18.302;2023-12-20T05:16:41;128.32;;;32.42;;
35562;SDS011;21665;40.108;18.302;2023-12-20T05:19:07;110.93;;;29.30;;
35562;SDS011;21665;40.108;18.302;2023-12-20T05:21:33;77.13;;;29.27;;
35562;SDS011;21665;40.108;18.302;2023-12-20T05:24:00;161.73;;;30.60;;
35562;SDS011;21665;40.108;18.302;2023-12-20T05:26:26;86.70;;;26.95;;
35562;SDS011;21665;40.108;18.302;2023-12-20T05:28:58;152.13;;;30.00;;
35562;SDS011;21665;40.108;18.302;2023-12-20T05:31:27;112.15;;;30.30;;
35562;SDS011;21665;40.108;18.302;2023-12-20T05:33:56;114.22;;;30.25;;
35562;SDS011;21665;40.108;18.302;2023-12-20T05:36:23;185.35;;;33.25;;
35562;SDS011;21665;40.108;18.302;2023-12-20T05:38:55;137.38;;;31.58;;
35562;SDS011;21665;40.108;18.302;2023-12-20T05:41:32;105.28;;;31.15;;
35562;SDS011;21665;40.108;18.302;2023-12-20T05:44:04;131.10;;;30.58;;
35562;SDS011;21665;40.108;18.302;2023-12-20T05:46:37;138.32;;;31.17;;
35562;SDS011;21665;40.108;18.302;2023-12-20T05:51:44;171.65;;;27.55;;
35562;SDS011;21665;40.108;18.302;2023-12-20T05:54:10;114.25;;;24.35;;
35562;SDS011;21665;40.108;18.302;2023-12-20T05:56:37;158.13;;;26.50;;
35562;SDS011;21665;40.108;18.302;2023-12-20T05:59:03;107.82;;;22.35;;
35562;SDS011;21665;40.108;18.302;2023-12-20T06:01:32;135.88;;;25.13;;
35562;SDS011;21665;40.108;18.302;2023-12-20T06:03:59;127.75;;;21.70;;
35562;SDS011;21665;40.108;18.302;2023-12-20T06:06:25;146.10;;;22.33;;
35562;SDS011;21665;40.108;18.302;2023-12-20T06:08:52;130.05;;;21.48;;
35562;SDS011;21665;40.108;18.302;2023-12-20T06:11:19;94.57;;;20.13;;
35562;SDS011;21665;40.108;18.302;2023-12-20T06:13:48;90.07;;;18.92;;
35562;SDS011;21665;40.108;18.302;2023-12-20T06:16:17;106.15;;;18.52;;
35562;SDS011;21665;40.108;18.302;2023-12-20T06:18:44;108.57;;;19.30;;
35562;SDS011;21665;40.108;18.302;2023-12-20T06:21:10;83.72;;;19.92;;
35562;SDS011;21665;40.108;18.302;2023-12-20T06:23:40;67.43;;;19.52;;
35562;SDS011;21665;40.108;18.302;2023-12-20T06:26:07;55.13;;;18.20;;
35562;SDS011;21665;40.108;18.302;2023-12-20T06:28:33;86.93;;;20.23;;
35562;SDS011;21665;40.108;18.302;2023-12-20T06:31:00;95.68;;;23.50;;
35562;SDS011;21665;40.108;18.302;2023-12-20T06:33:26;66.75;;;21.83;;
35562;SDS011;21665;40.108;18.302;2023-12-20T06:35:53;80.82;;;21.05;;
35562;SDS011;21665;40.108;18.302;2023-12-20T06:38:19;95.80;;;22.63;;
35562;SDS011;21665;40.108;18.302;2023-12-20T06:40:46;88.95;;;22.17;;
35562;SDS011;21665;40.108;18.302;2023-12-20T06:43:13;58.70;;;18.40;;
35562;SDS011;21665;40.108;18.302;2023-12-20T06:45:39;63.42;;;18.75;;
35562;SDS011;21665;40.108;18.302;2023-12-20T06:48:09;58.33;;;19.55;;
35562;SDS011;21665;40.108;18.302;2023-12-20T06:50:37;61.15;;;17.85;;
35562;SDS011;21665;40.108;18.302;2023-12-20T06:53:05;61.10;;;17.77;;
35562;SDS011;21665;40.108;18.302;2023-12-20T06:55:33;82.18;;;18.58;;
35562;SDS011;21665;40.108;18.302;2023-12-20T06:58:02;48.03;;;16.92;;
35562;SDS011;21665;40.108;18.302;2023-12-20T07:00:29;64.85;;;17.73;;
35562;SDS011;21665;40.108;18.302;2023-12-20T07:02:56;68.60;;;19.73;;
35562;SDS011;21665;40.108;18.302;2023-12-20T07:05:22;65.57;;;22.77;;
35562;SDS011;21665;40.108;18.302;2023-12-20T07:07:48;70.18;;;25.63;;
35562;SDS011;21665;40.108;18.302;2023-12-20T07:10:21;44.15;;;19.90;;
35562;SDS011;21665;40.108;18.302;2023-12-20T07:12:48;121.38;;;21.58;;
35562;SDS011;21665;40.108;18.302;2023-12-20T07:15:15;58.78;;;17.17;;
35562;SDS011;21665;40.108;18.302;2023-12-20T07:17:41;78.18;;;18.65;;
35562;SDS011;21665;40.108;18.302;2023-12-20T07:20:09;59.65;;;18.40;;
35562;SDS011;21665;40.108;18.302;2023-12-20T07:22:36;41.88;;;19.25;;
35562;SDS011;21665;40.108;18.302;2023-12-20T07:25:03;148.43;;;19.15;;
35562;SDS011;21665;40.108;18.302;2023-12-20T07:27:30;75.53;;;15.20;;
35562;SDS011;21665;40.108;18.302;2023-12-20T07:29:56;73.68;;;12.40;;
35562;SDS011;21665;40.108;18.302;2023-12-20T07:32:23;69.55;;;11.95;;
35562;SDS011;21665;40.108;18.302;2023-12-20T07:34:49;18.20;;;9.85;;
35562;SDS011;21665;40.108;18.302;2023-12-20T07:37:15;37.10;;;12.45;;
35562;SDS011;21665;40.108;18.302;2023-12-20T07:39:42;52.38;;;10.38;;
35562;SDS011;21665;40.108;18.302;2023-12-20T07:42:10;38.60;;;11.93;;
35562;SDS011;21665;40.108;18.302;2023-12-20T07:44:41;81.38;;;12.32;;
35562;SDS011;21665;40.108;18.302;2023-12-20T07:47:10;25.30;;;10.32;;
35562;SDS011;21665;40.108;18.302;2023-12-20T07:50:00;72.45;;;12.65;;
35562;SDS011;21665;40.108;18.302;2023-12-20T07:52:39;65.00;;;13.85;;
35562;SDS011;21665;40.108;18.302;2023-12-20T07:55:32;28.40;;;12.60;;
35562;SDS011;21665;40.108;18.302;2023-12-20T07:58:25;127.38;;;15.63;;
35562;SDS011;21665;40.108;18.302;2023-12-20T08:00:54;73.80;;;12.82;;
35562;SDS011;21665;40.108;18.302;2023-12-20T08:03:32;41.60;;;13.82;;
35562;SDS011;21665;40.108;18.302;2023-12-20T08:06:07;53.47;;;13.98;;
35562;SDS011;21665;40.108;18.302;2023-12-20T08:08:36;43.47;;;12.98;;
35562;SDS011;21665;40.108;18.302;2023-12-20T08:11:03;22.75;;;12.68;;
35562;SDS011;21665;40.108;18.302;2023-12-20T08:13:30;52.00;;;13.00;;
35562;SDS011;21665;40.108;18.302;2023-12-20T08:15:56;37.75;;;12.93;;
35562;SDS011;21665;40.108;18.302;2023-12-20T08:18:23;45.00;;;13.80;;
35562;SDS011;21665;40.108;18.302;2023-12-20T08:20:49;83.57;;;16.40;;
35562;SDS011;21665;40.108;18.302;2023-12-20T08:23:18;40.42;;;15.63;;
35562;SDS011;21665;40.108;18.302;2023-12-20T08:25:45;39.42;;;15.40;;
35562;SDS011;21665;40.108;18.302;2023-12-20T08:28:12;32.40;;;14.70;;
35562;SDS011;21665;40.108;18.302;2023-12-20T08:30:38;26.65;;;14.68;;
35562;SDS011;21665;40.108;18.302;2023-12-20T08:33:06;26.08;;;14.85;;
35562;SDS011;21665;40.108;18.302;2023-12-20T08:35:36;32.47;;;14.80;;
35562;SDS011;21665;40.108;18.302;2023-12-20T08:38:02;32.90;;;16.95;;
35562;SDS011;21665;40.108;18.302;2023-12-20T08:40:29;37.75;;;19.00;;
35562;SDS011;21665;40.108;18.302;2023-12-20T08:42:55;35.67;;;17.90;;
35562;SDS011;21665;40.108;18.302;2023-12-20T08:45:22;35.80;;;16.67;;
35562;SDS011;21665;40.108;18.302;2023-12-20T08:47:48;32.97;;;17.00;;
35562;SDS011;21665;40.108;18.302;2023-12-20T08:50:14;41.85;;;18.48;;
35562;SDS011;21665;40.108;18.302;2023-12-20T08:52:41;25.77;;;16.77;;
35562;SDS011;21665;40.108;18.302;2023-12-20T08:55:07;35.97;;;17.50;;
35562;SDS011;21665;40.108;18.302;2023-12-20T08:57:35;38.13;;;19.20;;
35562;SDS011;21665;40.108;18.302;2023-12-20T09:00:02;43.60;;;18.80;;
35562;SDS011;21665;40.108;18.302;2023-12-20T09:02:29;35.35;;;19.50;;
35562;SDS011;21665;40.108;18.302;2023-12-20T09:04:56;63.28;;;21.17;;
35562;SDS011;21665;40.108;18.302;2023-12-20T09:07:23;43.97;;;19.35;;
35562;SDS011;21665;40.108;18.302;2023-12-20T09:09:54;47.88;;;20.48;;
35562;SDS011;21665;40.108;18.302;2023-12-20T09:12:21;33.00;;;19.02;;
35562;SDS011;21665;40.108;18.302;2023-12-20T09:14:50;33.53;;;18.80;;
35562;SDS011;21665;40.108;18.302;2023-12-20T09:17:19;27.50;;;19.08;;
35562;SDS011;21665;40.108;18.302;2023-12-20T09:19:48;34.25;;;18.95;;
35562;SDS011;21665;40.108;18.302;2023-12-20T09:22:20;24.33;;;18.80;;
35562;SDS011;21665;40.108;18.302;2023-12-20T09:24:50;24.58;;;19.25;;
35562;SDS011;21665;40.108;18.302;2023-12-20T09:27:17;22.83;;;20.02;;
35562;SDS011;21665;40.108;18.302;2023-12-20T09:29:44;25.67;;;21.60;;
35562;SDS011;21665;40.108;18.302;2023-12-20T09:32:15;32.20;;;22.52;;
35562;SDS011;21665;40.108;18.302;2023-12-20T09:34:42;28.55;;;24.17;;
35562;SDS011;21665;40.108;18.302;2023-12-20T09:37:09;30.88;;;23.50;;
35562;SDS011;21665;40.108;18.302;2023-12-20T09:39:36;33.05;;;24.42;;
35562;SDS011;21665;40.108;18.302;2023-12-20T09:42:09;27.45;;;24.52;;
35562;SDS011;21665;40.108;18.302;2023-12-20T09:44:46;28.60;;;25.70;;
35562;SDS011;21665;40.108;18.302;2023-12-20T09:47:13;27.77;;;25.10;;
35562;SDS011;21665;40.108;18.302;2023-12-20T09:49:44;27.65;;;24.90;;
35562;SDS011;21665;40.108;18.302;2023-12-20T09:52:11;27.10;;;24.50;;
35562;SDS011;21665;40.108;18.302;2023-12-20T09:54:40;26.27;;;23.63;;
35562;SDS011;21665;40.108;18.302;2023-12-20T09:57:09;25.35;;;22.92;;
35562;SDS011;21665;40.108;18.302;2023-12-20T09:59:36;25.48;;;22.85;;
35562;SDS011;21665;40.108;18.302;2023-12-20T10:02:02;25.45;;;22.85;;
35562;SDS011;21665;40.108;18.302;2023-12-20T10:04:32;27.83;;;23.75;;
35562;SDS011;21665;40.108;18.302;2023-12-20T10:07:01;25.42;;;22.92;;
35562;SDS011;21665;40.108;18.302;2023-12-20T10:09:31;24.25;;;22.10;;
35562;SDS011;21665;40.108;18.302;2023-12-20T10:11:58;25.30;;;22.88;;
35562;SDS011;21665;40.108;18.302;2023-12-20T10:14:24;26.63;;;22.27;;
35562;SDS011;21665;40.108;18.302;2023-12-20T10:16:50;29.00;;;23.05;;
35562;SDS011;21665;40.108;18.302;2023-12-20T10:19:17;22.67;;;20.50;;
35562;SDS011;21665;40.108;18.302;2023-12-20T10:21:44;21.30;;;19.05;;
35562;SDS011;21665;40.108;18.302;2023-12-20T10:24:15;20.50;;;18.70;;
35562;SDS011;21665;40.108;18.302;2023-12-20T10:26:43;21.88;;;19.65;;
35562;SDS011;21665;40.108;18.302;2023-12-20T10:29:09;21.92;;;19.95;;
35562;SDS011;21665;40.108;18.302;2023-12-20T10:31:36;21.75;;;19.92;;
35562;SDS011;21665;40.108;18.302;2023-12-20T10:34:04;22.30;;;20.40;;
35562;SDS011;21665;40.108;18.302;2023-12-20T10:36:33;22.33;;;20.50;;
35562;SDS011;21665;40.108;18.302;2023-12-20T10:39:01;21.60;;;19.70;;
35562;SDS011;21665;40.108;18.302;2023-12-20T10:41:29;21.63;;;19.92;;
35562;SDS011;21665;40.108;18.302;2023-12-20T10:44:00;23.50;;;21.60;;
35562;SDS011;21665;40.108;18.302;2023-12-20T10:46:30;22.00;;;20.17;;
35562;SDS011;21665;40.108;18.302;2023-12-20T10:49:01;21.63;;;19.90;;
35562;SDS011;21665;40.108;18.302;2023-12-20T10:51:28;22.38;;;20.48;;
35562;SDS011;21665;40.108;18.302;2023-12-20T10:53:55;24.05;;;21.88;;
35562;SDS011;21665;40.108;18.302;2023-12-20T10:56:22;26.02;;;23.63;;
35562;SDS011;21665;40.108;18.302;2023-12-20T10:58:49;23.65;;;21.73;;
35562;SDS011;21665;40.108;18.302;2023-12-20T11:01:16;22.65;;;20.67;;
35562;SDS011;21665;40.108;18.302;2023-12-20T11:03:50;22.55;;;20.77;;
35562;SDS011;21665;40.108;18.302;2023-12-20T11:07:19;22.33;;;20.58;;
35562;SDS011;21665;40.108;18.302;2023-12-20T11:09:26;21.42;;;19.92;;
35562;SDS011;21665;40.108;18.302;2023-12-20T11:12:21;21.48;;;19.80;;
35562;SDS011;21665;40.108;18.302;2023-12-20T11:15:19;21.65;;;19.98;;
35562;SDS011;21665;40.108;18.302;2023-12-20T11:17:46;24.60;;;22.35;;
35562;SDS011;21665;40.108;18.302;2023-12-20T11:20:21;22.65;;;20.75;;
35562;SDS011;21665;40.108;18.302;2023-12-20T11:22:52;22.10;;;20.40;;
35562;SDS011;21665;40.108;18.302;2023-12-20T11:25:20;21.95;;;20.35;;
35562;SDS011;21665;40.108;18.302;2023-12-20T11:28:06;21.42;;;19.83;;
35562;SDS011;21665;40.108;18.302;2023-12-20T11:30:47;22.30;;;20.60;;
35562;SDS011;21665;40.108;18.302;2023-12-20T11:33:51;21.53;;;19.93;;
35562;SDS011;21665;40.108;18.302;2023-12-20T11:36:14;22.73;;;21.08;;
35562;SDS011;21665;40.108;18.302;2023-12-20T11:39:02;21.83;;;20.02;;
35562;SDS011;21665;40.108;18.302;2023-12-20T11:41:34;22.38;;;20.67;;
35562;SDS011;21665;40.108;18.302;2023-12-20T11:44:03;21.85;;;20.15;;
35562;SDS011;21665;40.108;18.302;2023-12-20T11:46:31;21.90;;;20.30;;
35562;SDS011;21665;40.108;18.302;2023-12-20T11:49:00;21.80;;;20.10;;
35562;SDS011;21665;40.108;18.302;2023-12-20T11:51:26;21.13;;;19.52;;
35562;SDS011;21665;40.108;18.302;2023-12-20T11:53:53;21.92;;;20.23;;
35562;SDS011;21665;40.108;18.302;2023-12-20T11:56:19;21.48;;;20.02;;
35562;SDS011;21665;40.108;18.302;2023-12-20T11:58:45;21.77;;;20.27;;
35562;SDS011;21665;40.108;18.302;2023-12-20T12:01:12;22.10;;;20.50;;
35562;SDS011;21665;40.108;18.302;2023-12-20T12:03:39;25.10;;;22.33;;
35562;SDS011;21665;40.108;18.302;2023-12-20T12:06:06;27.58;;;24.08;;
35562;SDS011;21665;40.108;18.302;2023-12-20T12:08:33;21.70;;;20.10;;
35562;SDS011;21665;40.108;18.302;2023-12-20T12:10:59;21.75;;;20.15;;
35562;SDS011;21665;40.108;18.302;2023-12-20T12:13:26;21.08;;;19.58;;
35562;SDS011;21665;40.108;18.302;2023-12-20T12:15:53;21.05;;;19.48;;
35562;SDS011;21665;40.108;18.302;2023-12-20T12:18:20;21.17;;;19.77;;
35562;SDS011;21665;40.108;18.302;2023-12-20T12:20:46;21.95;;;20.27;;
35562;SDS011;21665;40.108;18.302;2023-12-20T12:23:13;21.48;;;19.95;;
35562;SDS011;21665;40.108;18.302;2023-12-20T12:25:39;22.50;;;20.90;;
35562;SDS011;21665;40.108;18.302;2023-12-20T12:28:05;22.02;;;20.40;;
35562;SDS011;21665;40.108;18.302;2023-12-20T12:30:32;23.50;;;21.60;;
35562;SDS011;21665;40.108;18.302;2023-12-20T12:32:58;23.15;;;21.40;;
35562;SDS011;21665;40.108;18.302;2023-12-20T12:35:25;22.13;;;20.52;;
35562;SDS011;21665;40.108;18.302;2023-12-20T12:37:51;20.27;;;18.90;;
35562;SDS011;21665;40.108;18.302;2023-12-20T12:40:17;20.80;;;19.33;;
35562;SDS011;21665;40.108;18.302;2023-12-20T12:42:45;21.17;;;19.48;;
35562;SDS011;21665;40.108;18.302;2023-12-20T12:45:12;20.92;;;19.52;;
35562;SDS011;21665;40.108;18.302;2023-12-20T12:47:38;22.10;;;20.35;;
35562;SDS011;21665;40.108;18.302;2023-12-20T12:50:06;21.73;;;20.23;;
35562;SDS011;21665;40.108;18.302;2023-12-20T12:52:32;22.00;;;20.20;;
35562;SDS011;21665;40.108;18.302;2023-12-20T12:54:58;37.72;;;22.98;;
35562;SDS011;21665;40.108;18.302;2023-12-20T12:57:24;43.10;;;24.48;;
35562;SDS011;21665;40.108;18.302;2023-12-20T12:59:51;29.98;;;23.58;;
35562;SDS011;21665;40.108;18.302;2023-12-20T13:02:18;79.70;;;29.90;;
35562;SDS011;21665;40.108;18.302;2023-12-20T13:04:44;25.13;;;22.08;;
35562;SDS011;21665;40.108;18.302;2023-12-20T13:07:10;22.25;;;20.52;;
35562;SDS011;21665;40.108;18.302;2023-12-20T13:09:38;21.30;;;19.52;;
35562;SDS011;21665;40.108;18.302;2023-12-20T13:12:05;21.30;;;19.80;;
35562;SDS011;21665;40.108;18.302;2023-12-20T13:14:33;21.52;;;19.95;;
35562;SDS011;21665;40.108;18.302;2023-12-20T13:17:00;21.50;;;19.98;;
35562;SDS011;21665;40.108;18.302;2023-12-20T13:19:27;21.25;;;19.85;;
35562;SDS011;21665;40.108;18.302;2023-12-20T13:21:53;22.40;;;20.67;;
35562;SDS011;21665;40.108;18.302;2023-12-20T13:24:20;22.15;;;20.65;;
35562;SDS011;21665;40.108;18.302;2023-12-20T13:26:46;21.27;;;19.92;;
35562;SDS011;21665;40.108;18.302;2023-12-20T13:29:12;20.67;;;19.38;;
35562;SDS011;21665;40.108;18.302;2023-12-20T13:31:38;20.58;;;19.27;;
35562;SDS011;21665;40.108;18.302;2023-12-20T13:34:06;21.02;;;19.42;;
35562;SDS011;21665;40.108;18.302;2023-12-20T13:36:32;21.88;;;20.10;;
35562;SDS011;21665;40.108;18.302;2023-12-20T13:38:59;22.65;;;21.20;;
35562;SDS011;21665;40.108;18.302;2023-12-20T13:41:25;22.88;;;21.48;;
35562;SDS011;21665;40.108;18.302;2023-12-20T13:43:51;25.15;;;23.02;;
35562;SDS011;21665;40.108;18.302;2023-12-20T13:46:18;25.55;;;23.58;;
35562;SDS011;21665;40.108;18.302;2023-12-20T13:48:44;26.20;;;24.10;;
35562;SDS011;21665;40.108;18.302;2023-12-20T13:51:10;24.20;;;22.27;;
35562;SDS011;21665;40.108;18.302;2023-12-20T13:53:37;21.77;;;20.33;;
35562;SDS011;21665;40.108;18.302;2023-12-20T13:56:04;21.33;;;19.67;;
35562;SDS011;21665;40.108;18.302;2023-12-20T13:58:30;20.48;;;19.08;;
35562;SDS011;21665;40.108;18.302;2023-12-20T14:00:56;21.40;;;20.00;;
35562;SDS011;21665;40.108;18.302;2023-12-20T14:03:23;19.90;;;18.80;;
35562;SDS011;21665;40.108;18.302;2023-12-20T14:05:49;20.00;;;18.70;;
35562;SDS011;21665;40.108;18.302;2023-12-20T14:08:16;21.10;;;19.60;;
35562;SDS011;21665;40.108;18.302;2023-12-20T14:10:42;20.98;;;19.38;;
35562;SDS011;21665;40.108;18.302;2023-12-20T14:13:08;20.77;;;19.27;;
35562;SDS011;21665;40.108;18.302;2023-12-20T14:15:35;19.20;;;18.10;;